Time;durP1;ratioP1;P1;durP2;ratioP2;P2;SDS_P1;SDS_P2;PMS_P1;PMS_P2;Temp;Humidity;BMP_temperature;BMP_pressure;BME280_temperature;BME280_humidity;BME280_pressure;Samples;Min_cycle;Max_cycle;Signal;HPM_P1;HPM_P2
2023/03/25 00:00:29;;;;;;;6.90;2.60;;;9.90;99.90;;;;;;2610305;54;20223;-70
2023/03/25 00:06:16;;;;;;;2.10;2.00;;;9.80;99.90;;;;;;2607549;54;20133;-69
2023/03/25 00:12:04;;;;;;;4.70;2.17;;;9.70;99.90;;;;;;2612150;54;20118;-69
2023/03/25 00:14:57;;;;;;;6.53;2.57;;;9.60;99.90;;;;;;2612617;54;20415;-70
2023/03/25 00:17:27;;;;;;;3.03;2.27;;;9.40;99.90;;;;;;2612900;54;20457;-69
2023/03/25 00:23:17;;;;;;;2.30;2.10;;;9.40;99.90;;;;;;2613027;54;20395;-70
2023/03/25 00:29:04;;;;;;;8.43;2.27;;;9.30;99.90;;;;;;2612719;54;20507;-69
2023/03/25 00:34:52;;;;;;;3.93;2.37;;;9.40;99.90;;;;;;2612918;54;20170;-69
2023/03/25 00:40:40;;;;;;;2.40;2.20;;;9.50;99.90;;;;;;2612110;54;20162;-69
2023/03/25 00:46:30;;;;;;;3.30;2.40;;;9.40;99.90;;;;;;2612513;54;20178;-69
2023/03/25 00:52:21;;;;;;;3.07;2.30;;;9.50;99.90;;;;;;2612859;54;20395;-70
2023/03/25 00:58:09;;;;;;;2.50;2.30;;;9.40;99.90;;;;;;2613818;54;20402;-70
2023/03/25 01:03:58;;;;;;;2.30;2.10;;;9.50;99.90;;;;;;2613507;54;20621;-70
2023/03/25 01:09:46;;;;;;;5.90;2.50;;;9.40;99.90;;;;;;2612618;54;20395;-70
2023/03/25 01:19:27;;;;;;;6.40;2.40;;;9.40;99.90;;;;;;2613237;54;20371;-69
2023/03/25 01:25:14;;;;;;;5.40;3.07;;;9.30;99.90;;;;;;2613022;54;20588;-69
2023/03/25 01:31:05;;;;;;;5.73;2.53;;;9.30;99.90;;;;;;2612209;54;21068;-69
2023/03/25 01:36:54;;;;;;;2.03;1.83;;;9.40;99.90;;;;;;2613193;54;20386;-70
2023/03/25 01:42:45;;;;;;;2.60;2.40;;;9.40;99.90;;;;;;2613238;54;20518;-70
2023/03/25 01:48:40;;;;;;;3.23;2.93;;;9.40;99.90;;;;;;2612567;54;20375;-69
2023/03/25 01:54:28;;;;;;;3.87;2.57;;;9.60;99.90;;;;;;2613242;54;20399;-70
2023/03/25 02:00:17;;;;;;;2.67;2.47;;;9.60;99.90;;;;;;2613467;54;20495;-69
2023/03/25 02:06:10;;;;;;;3.43;2.80;;;9.60;99.90;;;;;;2613296;54;20423;-69
2023/03/25 02:11:59;;;;;;;3.20;2.63;;;9.50;99.90;;;;;;2613610;54;20423;-68
2023/03/25 02:14:56;;;;;;;3.30;2.80;;;9.50;99.90;;;;;;2612670;54;20933;-70
2023/03/25 02:17:29;;;;;;;3.27;2.97;;;9.60;99.90;;;;;;2612040;54;20379;-69
2023/03/25 02:54:03;;;;;;;3.10;2.80;;;9.50;99.90;;;;;;2611685;54;20515;-70
2023/03/25 02:59:52;;;;;;;4.13;2.80;;;9.40;99.90;;;;;;2611096;54;20424;-69
2023/03/25 03:05:45;;;;;;;2.90;2.70;;;9.40;99.90;;;;;;2611989;54;20371;-70
2023/03/25 03:18:19;;;;;;;3.10;2.90;;;9.40;99.90;;;;;;2611160;54;20432;-69
2023/03/25 03:30:45;;;;;;;7.87;3.60;;;9.30;99.90;;;;;;2612768;54;20387;-69
2023/03/25 03:36:38;;;;;;;5.53;3.17;;;9.30;99.90;;;;;;2613600;39;20759;-70
2023/03/25 03:42:36;;;;;;;3.93;2.83;;;9.20;99.90;;;;;;2612208;54;20371;-69
2023/03/25 04:07:37;;;;;;;2.57;2.37;;;9.20;99.90;;;;;;2611601;54;20403;-74
2023/03/25 04:13:31;;;;;;;7.80;3.07;;;9.20;99.90;;;;;;2613290;54;20415;-72
2023/03/25 04:19:19;;;;;;;5.83;2.80;;;9.10;99.90;;;;;;2612489;54;20894;-74
2023/03/25 04:25:07;;;;;;;4.20;2.40;;;8.90;99.90;;;;;;2612348;54;20154;-73
2023/03/25 04:30:55;;;;;;;3.57;2.47;;;9.10;99.90;;;;;;2612362;54;20378;-75
2023/03/25 04:36:43;;;;;;;6.50;3.00;;;9.00;99.90;;;;;;2612867;54;20386;-73
2023/03/25 04:42:31;;;;;;;2.90;2.60;;;8.90;99.90;;;;;;2613610;54;20138;-74
2023/03/25 04:48:23;;;;;;;6.43;2.83;;;8.90;99.90;;;;;;2613956;39;20930;-74
2023/03/25 04:54:11;;;;;;;5.50;3.20;;;9.00;99.90;;;;;;2611761;54;20957;-74
2023/03/25 04:59:58;;;;;;;4.10;2.00;;;8.90;99.90;;;;;;2613163;54;20518;-73
2023/03/25 05:05:46;;;;;;;5.60;3.20;;;8.90;99.90;;;;;;2612624;54;20134;-73
2023/03/25 05:11:40;;;;;;;5.50;2.30;;;9.00;99.90;;;;;;2612949;54;20131;-74
2023/03/25 05:14:55;;;;;;;8.87;2.80;;;8.70;99.90;;;;;;2611906;47;20406;-73
2023/03/25 05:17:21;;;;;;;5.00;3.10;;;8.70;99.90;;;;;;2612967;54;20431;-73
2023/03/25 05:23:16;;;;;;;6.70;2.90;;;8.90;99.90;;;;;;2613044;54;20126;-74
2023/03/25 05:29:20;;;;;;;8.97;3.07;;;8.80;99.90;;;;;;2611661;54;20495;-74
2023/03/25 05:35:07;;;;;;;4.07;2.80;;;8.80;99.90;;;;;;2611359;39;20634;-74
2023/03/25 05:40:55;;;;;;;5.10;2.90;;;8.80;99.90;;;;;;2611696;54;20548;-74
2023/03/25 05:46:42;;;;;;;2.90;2.60;;;8.90;99.90;;;;;;2612782;54;20556;-74
2023/03/25 05:52:29;;;;;;;6.03;2.60;;;8.90;99.90;;;;;;2610799;54;20157;-74
2023/03/25 05:58:18;;;;;;;5.90;3.30;;;9.00;99.90;;;;;;2611444;31;20653;-76
2023/03/25 06:04:08;;;;;;;2.93;2.33;;;9.00;99.90;;;;;;2613636;54;20408;-73
2023/03/25 06:09:56;;;;;;;4.37;2.83;;;9.00;99.90;;;;;;2613449;54;20377;-73
2023/03/25 06:19:27;;;;;;;3.53;3.03;;;9.20;99.90;;;;;;2614085;54;20455;-73
2023/03/25 06:25:17;;;;;;;7.00;3.37;;;9.10;99.90;;;;;;2610654;54;20546;-72
2023/03/25 06:37:36;;;;;;;5.70;3.00;;;9.00;99.90;;;;;;2613898;54;20367;-73
2023/03/25 06:43:24;;;;;;;8.10;2.77;;;8.90;99.90;;;;;;2608872;54;20496;-73
2023/03/25 06:49:12;;;;;;;6.53;3.00;;;9.10;99.90;;;;;;2608638;54;20130;-73
2023/03/25 06:55:00;;;;;;;5.07;3.07;;;9.10;99.90;;;;;;2609062;39;20565;-74
2023/03/25 07:00:53;;;;;;;5.07;2.70;;;9.20;99.90;;;;;;2609893;54;20186;-74
2023/03/25 07:06:41;;;;;;;3.33;2.90;;;9.30;99.90;;;;;;2612206;54;20415;-74
2023/03/25 07:12:29;;;;;;;3.60;2.13;;;9.60;99.90;;;;;;2612576;54;20134;-74
2023/03/25 07:18:16;;;;;;;3.37;2.47;;;9.40;99.90;;;;;;2612589;54;20127;-75
2023/03/25 07:27:30;;;;;;;5.83;3.80;;;9.40;99.90;;;;;;2611223;39;20851;-78
2023/03/25 07:33:18;;;;;;;9.90;3.40;;;9.50;99.90;;;;;;2612955;54;20399;-73
2023/03/25 07:39:06;;;;;;;3.53;2.30;;;9.60;99.90;;;;;;2610977;54;20529;-73
2023/03/25 07:44:54;;;;;;;7.43;3.10;;;9.70;99.90;;;;;;2610434;54;20399;-74
2023/03/25 07:50:44;;;;;;;4.90;3.37;;;9.50;99.90;;;;;;2614033;54;20170;-74
2023/03/25 07:56:32;;;;;;;9.00;2.93;;;9.40;99.90;;;;;;2610995;54;20395;-73
2023/03/25 08:02:19;;;;;;;6.17;3.40;;;9.40;99.90;;;;;;2612623;54;20724;-74
2023/03/25 08:08:07;;;;;;;8.03;3.63;;;9.40;99.90;;;;;;2613286;54;20139;-74
2023/03/25 08:13:55;;;;;;;6.43;3.40;;;9.40;99.90;;;;;;2613238;54;20114;-75
2023/03/25 08:19:42;;;;;;;9.00;3.87;;;9.50;99.90;;;;;;2611811;54;20154;-75
2023/03/25 08:25:47;;;;;;;4.50;3.00;;;9.70;99.90;;;;;;2610902;54;20127;-76
2023/03/25 08:29:12;;;;;;;4.73;3.60;;;9.90;99.90;;;;;;2608226;54;20410;-76
2023/03/25 08:34:59;;;;;;;6.60;4.33;;;10.10;99.90;;;;;;2611575;54;21251;-75
2023/03/25 08:40:47;;;;;;;6.20;4.00;;;10.40;99.90;;;;;;2611018;54;20252;-75
2023/03/25 08:46:35;;;;;;;4.93;3.30;;;10.00;99.90;;;;;;2611377;54;20942;-76
2023/03/25 08:52:22;;;;;;;7.00;4.37;;;10.10;99.90;;;;;;2610274;54;20390;-75
2023/03/25 08:58:09;;;;;;;4.40;3.97;;;10.30;99.90;;;;;;2611638;54;20367;-74
2023/03/25 09:03:57;;;;;;;5.77;3.80;;;10.20;99.90;;;;;;2614121;54;20194;-75
2023/03/25 09:09:45;;;;;;;4.47;3.70;;;10.10;99.90;;;;;;2612836;54;20166;-75
2023/03/25 09:15:33;;;;;;;4.30;3.60;;;10.10;99.90;;;;;;2614052;54;20370;-75
2023/03/25 09:21:20;;;;;;;5.87;4.10;;;10.10;99.90;;;;;;2611855;54;20218;-75
2023/03/25 09:30:30;;;;;;;6.03;4.40;;;10.30;99.90;;;;;;2613283;54;20920;-75
2023/03/25 09:36:18;;;;;;;7.57;3.60;;;10.20;99.90;;;;;;2613856;54;20126;-73
2023/03/25 09:48:53;;;;;;;7.43;3.57;;;9.80;99.90;;;;;;2611872;54;20367;-74
2023/03/25 10:01:27;;;;;;;7.60;4.40;;;10.40;99.90;;;;;;2613676;54;20387;-76
2023/03/25 10:07:47;;;;;;;6.20;3.90;;;10.60;99.90;;;;;;2613741;54;20418;-74
2023/03/25 10:30:36;;;;;;;13.33;7.37;;;10.40;99.90;;;;;;2611328;54;20408;-74
2023/03/25 10:42:43;;;;;;;8.50;3.30;;;9.50;99.90;;;;;;2611743;39;20791;-72
2023/03/25 10:48:31;;;;;;;8.80;3.20;;;10.20;99.90;;;;;;2610498;54;20346;-72
2023/03/25 10:54:20;;;;;;;4.50;2.67;;;10.90;99.90;;;;;;2611148;54;20631;-73
2023/03/25 11:03:33;;;;;;;13.03;3.63;;;11.40;99.90;;;;;;2613814;54;20442;-73
2023/03/25 11:09:29;;;;;;;3.93;2.47;;;11.30;99.60;;;;;;2613019;54;20364;-73
2023/03/25 11:15:30;;;;;;;5.23;3.13;;;10.60;99.90;;;;;;2610695;54;20390;-73
2023/03/25 11:21:20;;;;;;;6.63;2.83;;;10.70;99.90;;;;;;2612849;54;20399;-74
2023/03/25 11:30:36;;;;;;;4.27;3.20;;;11.70;99.90;;;;;;2612109;54;20387;-74
2023/03/25 11:36:28;;;;;;;4.20;3.50;;;12.20;91.90;;;;;;2611992;54;20528;-74
2023/03/25 11:42:16;;;;;;;4.73;2.10;;;12.80;72.60;;;;;;2611825;54;20399;-74
2023/03/25 11:48:16;;;;;;;5.43;2.83;;;13.30;63.90;;;;;;2610532;54;20218;-74
2023/03/25 11:54:11;;;;;;;11.70;3.13;;;12.80;69.40;;;;;;2612523;54;20366;-74
2023/03/25 12:06:32;;;;;;;8.10;3.70;;;13.60;60.90;;;;;;2609610;39;20760;-73
2023/03/25 12:18:46;;;;;;;5.63;3.83;;;14.30;56.40;;;;;;2607314;39;20761;-76
2023/03/25 12:29:08;;;;;;;6.03;4.00;;;14.10;65.30;;;;;;2610466;54;21071;-77
2023/03/25 12:35:07;;;;;;;7.10;4.53;;;15.00;48.20;;;;;;2611080;54;20385;-76
2023/03/25 13:13:33;;;;;;;7.73;6.67;;;13.70;41.60;;;;;;2611940;54;20379;-74
2023/03/25 13:19:28;;;;;;;7.10;6.40;;;13.50;42.80;;;;;;2613548;54;20378;-75
2023/03/25 13:25:20;;;;;;;9.93;6.20;;;13.50;39.30;;;;;;2613021;54;20518;-75
2023/03/25 13:31:14;;;;;;;11.53;6.17;;;12.40;38.90;;;;;;2614896;54;20443;-75
2023/03/25 13:34:23;;;;;;;7.50;6.90;;;12.00;45.00;;;;;;2611999;46;20450;-75
2023/03/25 13:46:44;;;;;;;5.13;4.73;;;12.90;59.80;;;;;;2614231;54;20387;-76
2023/03/25 13:52:38;;;;;;;6.20;5.70;;;12.30;58.70;;;;;;2611940;46;20422;-76
2023/03/25 14:05:08;;;;;;;4.53;4.23;;;11.90;71.20;;;;;;2614185;54;20370;-76
2023/03/25 14:20:44;;;;;;;5.80;4.60;;;11.50;99.90;;;;;;2610049;54;20479;-75
2023/03/25 14:26:33;;;;;;;4.40;4.17;;;11.50;99.90;;;;;;2610455;39;20866;-76
2023/03/25 14:29:51;;;;;;;6.53;4.77;;;11.10;99.90;;;;;;2612342;54;20404;-74
2023/03/25 14:32:17;;;;;;;7.40;7.10;;;10.90;99.90;;;;;;2612862;54;20440;-72
2023/03/25 14:38:07;;;;;;;6.37;2.20;;;9.80;99.90;;;;;;2612570;54;20123;-71
2023/03/25 14:50:34;;;;;;;3.53;1.97;;;9.70;99.90;;;;;;2611970;54;20607;-71
2023/03/25 14:56:24;;;;;;;3.03;1.83;;;10.40;99.90;;;;;;2612007;54;20258;-74
2023/03/25 15:02:21;;;;;;;2.77;1.50;;;11.00;99.90;;;;;;2611215;54;20440;-73
2023/03/25 15:08:11;;;;;;;4.70;1.67;;;10.50;99.90;;;;;;2613624;39;20759;-76
2023/03/25 15:14:03;;;;;;;7.70;2.27;;;10.30;99.90;;;;;;2611774;54;20394;-75
2023/03/25 15:26:15;;;;;;;3.73;1.87;;;10.00;99.90;;;;;;2612154;54;20459;-76
2023/03/25 15:39:18;;;;;;;10.93;3.77;;;10.10;99.90;;;;;;2612528;54;20359;-75
2023/03/25 15:45:25;;;;;;;2.77;2.20;;;10.90;99.90;;;;;;2611843;54;20479;-76
2023/03/25 16:04:41;;;;;;;5.30;2.87;;;10.60;99.90;;;;;;2613186;39;20743;-76
2023/03/25 16:10:35;;;;;;;5.93;3.30;;;11.60;99.90;;;;;;2611535;39;20586;-75
2023/03/25 16:16:22;;;;;;;8.03;3.53;;;11.10;99.90;;;;;;2613429;54;20394;-76
2023/03/25 16:28:45;;;;;;;3.40;2.17;;;10.40;99.90;;;;;;2611197;54;20414;-75
2023/03/25 16:34:36;;;;;;;8.30;2.37;;;10.20;99.90;;;;;;2613437;54;20403;-76
2023/03/25 16:47:00;;;;;;;6.00;3.67;;;10.30;99.90;;;;;;2611443;54;20391;-75
2023/03/25 16:52:47;;;;;;;6.00;3.20;;;10.30;99.90;;;;;;2610960;54;20399;-76
2023/03/25 16:58:36;;;;;;;6.30;2.97;;;10.30;99.90;;;;;;2611777;39;21002;-76
2023/03/25 17:11:01;;;;;;;7.90;3.30;;;10.40;99.90;;;;;;2612201;46;20399;-76
2023/03/25 17:16:51;;;;;;;9.40;3.27;;;10.40;99.90;;;;;;2612644;54;20156;-76
2023/03/25 17:22:39;;;;;;;6.17;3.00;;;10.30;99.90;;;;;;2612717;54;20391;-76
2023/03/25 17:28:31;;;;;;;7.73;2.63;;;9.80;99.90;;;;;;2613304;54;20154;-73
2023/03/25 17:34:21;;;;;;;8.70;3.30;;;9.40;99.90;;;;;;2612904;54;20374;-74
2023/03/25 17:46:44;;;;;;;8.97;3.50;;;9.20;99.90;;;;;;2611321;54;20403;-73
2023/03/25 17:52:35;;;;;;;11.57;3.80;;;9.20;99.90;;;;;;2613011;54;20130;-73
2023/03/25 17:58:22;;;;;;;8.50;3.80;;;9.20;99.90;;;;;;2613860;54;20387;-72
2023/03/25 18:04:10;;;;;;;11.40;4.20;;;9.00;99.90;;;;;;2613443;31;20766;-73
2023/03/25 18:09:59;;;;;;;10.43;4.57;;;9.00;99.90;;;;;;2613359;54;20411;-73
2023/03/25 18:15:50;;;;;;;18.63;4.23;;;9.00;99.90;;;;;;2614851;54;20379;-74
2023/03/25 18:21:38;;;;;;;7.07;2.60;;;9.00;99.90;;;;;;2614422;54;20371;-73
2023/03/25 18:27:25;;;;;;;6.53;3.40;;;9.20;99.90;;;;;;2613542;54;20753;-74
2023/03/25 18:29:51;;;;;;;10.93;4.57;;;9.30;99.90;;;;;;2613345;54;20427;-73
2023/03/25 18:32:17;;;;;;;10.30;5.27;;;9.50;99.90;;;;;;2611668;54;20170;-74
2023/03/25 18:38:04;;;;;;;6.60;4.33;;;9.40;99.90;;;;;;2612416;39;20503;-76
2023/03/25 18:43:53;;;;;;;8.50;3.47;;;9.50;99.90;;;;;;2610718;54;20691;-75
2023/03/25 18:49:41;;;;;;;5.93;3.03;;;9.60;99.90;;;;;;2613019;54;20387;-75
2023/03/25 18:55:30;;;;;;;9.00;3.80;;;9.70;99.90;;;;;;2611540;54;20163;-74
2023/03/25 19:01:19;;;;;;;10.57;3.87;;;9.80;99.90;;;;;;2612548;54;20395;-75
2023/03/25 19:07:09;;;;;;;7.80;3.50;;;9.90;99.90;;;;;;2609019;54;20977;-76
2023/03/25 19:12:57;;;;;;;4.00;3.63;;;10.00;99.90;;;;;;2611158;54;20529;-75
2023/03/25 19:18:46;;;;;;;12.30;4.33;;;9.90;99.90;;;;;;2612103;39;20518;-76
2023/03/25 19:24:34;;;;;;;5.70;3.83;;;9.80;99.90;;;;;;2614240;54;20402;-75
2023/03/25 19:34:30;;;;;;;12.03;3.70;;;9.70;99.90;;;;;;2614096;54;20548;-76
2023/03/25 19:40:20;;;;;;;9.40;4.37;;;9.90;99.90;;;;;;2614768;54;20427;-76
2023/03/25 19:46:09;;;;;;;15.93;3.83;;;9.90;99.90;;;;;;2614570;54;20989;-73
2023/03/25 19:51:57;;;;;;;8.27;3.13;;;9.10;99.90;;;;;;2614761;54;20370;-72
2023/03/25 19:57:46;;;;;;;3.80;2.57;;;6.80;99.90;;;;;;2612490;54;20154;-73
2023/03/25 20:03:37;;;;;;;4.07;2.33;;;6.90;99.90;;;;;;2612395;54;20569;-74
2023/03/25 20:09:24;;;;;;;8.00;4.27;;;7.20;99.90;;;;;;2613655;54;20520;-72
2023/03/25 20:15:12;;;;;;;6.60;4.70;;;7.20;99.90;;;;;;2613788;54;20137;-74
2023/03/25 20:21:00;;;;;;;8.07;4.13;;;7.50;99.90;;;;;;2613841;54;20395;-74
2023/03/25 20:26:47;;;;;;;15.30;4.13;;;7.80;99.90;;;;;;2613258;46;20165;-74
2023/03/25 20:29:53;;;;;;;7.23;3.80;;;7.80;99.90;;;;;;2611802;54;20420;-72
2023/03/25 20:32:20;;;;;;;12.73;3.10;;;8.10;99.90;;;;;;2612298;54;20170;-73
2023/03/25 20:38:08;;;;;;;6.00;2.20;;;8.60;99.90;;;;;;2610464;54;20391;-74
2023/03/25 20:43:55;;;;;;;5.03;3.53;;;8.20;99.90;;;;;;2612797;54;20918;-73
2023/03/25 20:49:43;;;;;;;7.50;2.87;;;8.10;99.90;;;;;;2613034;54;20162;-73
2023/03/25 20:55:31;;;;;;;3.53;2.07;;;8.10;99.90;;;;;;2611345;54;20254;-75
2023/03/25 21:01:19;;;;;;;11.77;3.10;;;8.20;99.90;;;;;;2611721;54;20745;-73
2023/03/25 21:07:09;;;;;;;4.53;2.70;;;8.10;99.90;;;;;;2613822;54;20438;-74
2023/03/25 21:12:56;;;;;;;9.77;3.17;;;8.20;99.90;;;;;;2614431;54;20394;-73
2023/03/25 21:18:44;;;;;;;7.47;4.37;;;8.00;99.90;;;;;;2615020;39;20539;-73
2023/03/25 21:24:34;;;;;;;10.43;3.20;;;7.90;99.90;;;;;;2614176;54;20455;-73
2023/03/25 21:34:29;;;;;;;6.20;2.30;;;7.80;99.90;;;;;;2614416;54;20426;-73
2023/03/25 21:40:16;;;;;;;5.77;2.13;;;7.60;99.90;;;;;;2614423;54;20425;-73
2023/03/25 21:46:05;;;;;;;3.83;2.10;;;7.50;99.90;;;;;;2615093;54;20672;-74
2023/03/25 21:51:55;;;;;;;3.80;2.07;;;7.50;99.90;;;;;;2613670;54;20483;-72
2023/03/25 21:57:43;;;;;;;4.40;1.77;;;7.40;99.90;;;;;;2613176;54;20414;-74
2023/03/25 22:03:36;;;;;;;3.13;2.20;;;7.20;99.90;;;;;;2613325;54;20197;-74
2023/03/25 22:06:39;;;;;;;2.97;1.77;;;7.20;99.90;;;;;;2613679;54;20534;-73
2023/03/25 22:09:06;;;;;;;5.73;2.00;;;7.20;99.90;;;;;;2612585;31;20848;-73
2023/03/25 22:14:54;;;;;;;3.60;1.87;;;7.30;99.90;;;;;;2612456;54;20430;-74
2023/03/25 22:20:42;;;;;;;3.10;1.60;;;7.30;99.90;;;;;;2612621;54;20150;-74
2023/03/25 22:26:31;;;;;;;1.90;1.20;;;7.30;99.90;;;;;;2610934;54;20269;-75
2023/03/25 22:32:19;;;;;;;7.17;1.73;;;7.50;99.90;;;;;;2613060;54;20434;-74
2023/03/25 22:38:07;;;;;;;2.27;1.53;;;7.50;99.90;;;;;;2612478;39;20837;-73
2023/03/25 22:43:55;;;;;;;3.33;2.00;;;7.60;99.90;;;;;;2608619;54;20227;-74
2023/03/25 22:49:42;;;;;;;6.03;2.40;;;7.50;99.90;;;;;;2613622;54;20177;-73
2023/03/25 22:55:30;;;;;;;1.80;1.07;;;7.60;99.90;;;;;;2612139;54;20130;-74
2023/03/25 23:01:22;;;;;;;2.73;1.73;;;7.50;99.90;;;;;;2612374;54;21885;-75
2023/03/25 23:07:11;;;;;;;2.10;1.60;;;7.50;99.90;;;;;;2611809;54;20358;-73
2023/03/25 23:12:59;;;;;;;1.80;1.30;;;7.40;99.90;;;;;;2611075;54;20524;-74
2023/03/25 23:18:47;;;;;;;2.53;1.73;;;7.50;99.90;;;;;;2611836;54;20989;-74
2023/03/25 23:24:37;;;;;;;7.37;3.00;;;7.60;99.90;;;;;;2611377;54;21832;-74
2023/03/25 23:34:32;;;;;;;13.40;5.27;;;7.70;99.90;;;;;;2611924;54;20375;-74
2023/03/25 23:40:21;;;;;;;4.83;3.20;;;7.70;99.90;;;;;;2612011;54;20406;-75
2023/03/25 23:46:10;;;;;;;9.17;5.10;;;7.80;99.90;;;;;;2612506;39;21042;-75
2023/03/25 23:52:01;;;;;;;14.37;5.63;;;7.80;99.90;;;;;;2611600;54;20503;-74
2023/03/25 23:57:49;;;;;;;14.37;5.60;;;8.00;99.90;;;;;;2611056;54;20400;-75
